createdAt,value
2023-02-26T00:02:37.252Z,1.40
2023-02-26T00:07:39.177Z,1.26
2023-02-26T00:12:41.865Z,1.11
2023-02-26T00:17:49.004Z,1.05
2023-02-26T00:22:51.943Z,0.98
2023-02-26T00:27:54.170Z,1.00
2023-02-26T00:32:57.807Z,1.07
2023-02-26T00:38:02.560Z,1.15
2023-02-26T00:43:05.083Z,1.09
2023-02-26T00:48:17.795Z,1.04
2023-02-26T00:53:22.012Z,0.99
2023-02-26T00:58:23.931Z,0.95
2023-02-26T01:03:27.529Z,0.88
2023-02-26T01:08:31.800Z,0.85
2023-02-26T01:13:33.807Z,0.80
2023-02-26T01:18:39.298Z,0.77
2023-02-26T01:23:41.866Z,0.75
2023-02-26T01:28:44.094Z,0.77
2023-02-26T01:33:50.074Z,0.86
2023-02-26T01:38:53.558Z,0.98
2023-02-26T01:44:00.632Z,1.06
2023-02-26T01:49:04.769Z,1.11
2023-02-26T01:54:06.500Z,1.14
2023-02-26T01:59:08.656Z,1.18
2023-02-26T02:04:14.390Z,1.23
2023-02-26T02:09:16.264Z,1.28
2023-02-26T02:14:20.982Z,1.35
2023-02-26T02:19:56.976Z,1.41
2023-02-26T02:25:10.536Z,1.44
2023-02-26T02:30:21.945Z,1.43
2023-02-26T02:35:26.250Z,1.48
2023-02-26T02:40:29.258Z,1.47
2023-02-26T02:45:34.581Z,1.53
2023-02-26T02:50:40.112Z,1.55
2023-02-26T02:55:43.728Z,1.56
2023-02-26T03:00:49.697Z,1.54
2023-02-26T03:05:52.737Z,1.59
2023-02-26T03:10:55.715Z,1.54
2023-02-26T03:16:03.475Z,1.53
2023-02-26T03:21:09.990Z,1.52
2023-02-26T03:26:14.472Z,1.56
2023-02-26T03:31:19.230Z,1.54
2023-02-26T03:36:28.236Z,1.56
2023-02-26T03:41:44.106Z,1.54
2023-02-26T03:46:48.151Z,1.58
2023-02-26T03:51:52.454Z,1.57
2023-02-26T03:57:17.598Z,1.60
2023-02-26T04:02:38.242Z,1.61
2023-02-26T04:07:49.261Z,1.62
2023-02-26T04:12:50.924Z,1.64
2023-02-26T04:17:52.696Z,1.66
2023-02-26T04:22:55.903Z,1.66
2023-02-26T04:27:58.431Z,1.71
2023-02-26T04:33:00.283Z,1.73
2023-02-26T04:38:03.477Z,1.72
2023-02-26T04:43:05.208Z,1.74
2023-02-26T04:48:13.390Z,1.82
2023-02-26T04:53:16.643Z,1.83
2023-02-26T04:58:18.350Z,1.83
2023-02-26T05:03:20.841Z,1.86
2023-02-26T05:08:24.149Z,1.90
2023-02-26T05:13:26.690Z,1.82
2023-02-26T05:18:28.401Z,1.88
2023-02-26T05:23:31.403Z,1.87
2023-02-26T05:28:33.928Z,1.87
2023-02-26T05:33:35.976Z,1.83
2023-02-26T05:38:38.967Z,1.74
2023-02-26T05:43:41.802Z,1.77
2023-02-26T05:48:45.705Z,1.74
2023-02-26T05:53:48.938Z,1.73
2023-02-26T05:58:50.631Z,1.67
2023-02-26T06:03:52.338Z,1.62
2023-02-26T06:08:55.363Z,1.61
2023-02-26T06:13:57.061Z,1.57
2023-02-26T06:18:58.764Z,1.67
2023-02-26T06:24:01.750Z,1.73
2023-02-26T06:29:03.515Z,1.73
2023-02-26T06:34:05.221Z,1.78
2023-02-26T06:39:08.281Z,1.80
2023-02-26T06:44:10.035Z,1.86
2023-02-26T06:49:11.715Z,2.03
2023-02-26T06:54:14.874Z,2.09
2023-02-26T06:59:16.554Z,2.11
2023-02-26T07:04:20.615Z,2.14
2023-02-26T07:09:23.749Z,2.11
2023-02-26T07:14:25.602Z,2.07
2023-02-26T07:19:27.270Z,2.04
2023-02-26T07:24:30.294Z,2.06
2023-02-26T07:29:32.126Z,2.25
2023-02-26T07:34:34.150Z,2.50
2023-02-26T07:39:37.146Z,3.23
2023-02-26T07:44:38.993Z,3.51
2023-02-26T07:49:40.984Z,3.84
2023-02-26T07:54:43.969Z,9.53
2023-02-26T07:59:45.609Z,15.06
2023-02-26T08:04:47.269Z,18.68
2023-02-26T08:09:50.302Z,20.47
2023-02-26T08:14:52.000Z,21.10
2023-02-26T08:19:53.706Z,22.34
2023-02-26T08:24:56.660Z,23.46
2023-02-26T08:29:58.311Z,23.46
2023-02-26T08:34:59.962Z,24.63
2023-02-26T08:40:03.983Z,25.07
2023-02-26T08:45:06.766Z,25.94
2023-02-26T08:50:09.922Z,26.60
2023-02-26T08:55:12.920Z,27.37
2023-02-26T09:00:18.594Z,27.34
2023-02-26T09:05:20.357Z,26.43
2023-02-26T09:10:23.400Z,27.31
2023-02-26T09:15:25.053Z,27.39
2023-02-26T09:20:29.158Z,25.39
2023-02-26T09:25:32.193Z,25.54
2023-02-26T09:30:33.918Z,26.19
2023-02-26T09:35:35.589Z,26.11
2023-02-26T09:40:43.382Z,23.50
2023-02-26T09:45:45.283Z,25.88
2023-02-26T09:50:48.340Z,27.18
2023-02-26T09:55:52.108Z,27.27
2023-02-26T10:01:00.359Z,26.94
2023-02-26T10:06:13.177Z,27.50
2023-02-26T10:11:20.339Z,27.48
2023-02-26T10:16:26.340Z,26.97
2023-02-26T10:21:32.476Z,26.24
2023-02-26T10:26:37.623Z,26.57
2023-02-26T10:31:42.883Z,27.18
2023-02-26T10:36:48.409Z,27.08
2023-02-26T10:41:51.437Z,26.33
2023-02-26T10:46:55.255Z,26.52
2023-02-26T10:51:57.217Z,27.42
2023-02-26T10:57:00.736Z,27.03
2023-02-26T11:02:02.370Z,26.72
2023-02-26T11:07:05.110Z,26.52
2023-02-26T11:12:12.962Z,26.15
2023-02-26T11:17:17.345Z,24.37
2023-02-26T11:22:19.132Z,20.97
2023-02-26T11:27:24.106Z,16.29
2023-02-26T11:32:29.981Z,14.38
2023-02-26T11:37:34.424Z,13.17
2023-02-26T11:42:38.354Z,12.26
2023-02-26T11:47:40.075Z,11.99
2023-02-26T11:52:42.490Z,11.93
2023-02-26T11:57:45.545Z,11.40
2023-02-26T12:02:47.285Z,11.22
2023-02-26T12:07:49.021Z,11.34
2023-02-26T12:13:02.057Z,11.29
2023-02-26T12:18:40.582Z,11.29
2023-02-26T12:24:10.304Z,11.01
2023-02-26T12:29:32.830Z,10.69
2023-02-26T12:34:49.178Z,10.40
2023-02-26T12:39:58.332Z,10.31
2023-02-26T12:45:11.620Z,10.06
2023-02-26T12:50:28.436Z,9.23
2023-02-26T12:55:34.704Z,9.23
2023-02-26T13:00:51.770Z,9.54
2023-02-26T13:06:07.972Z,9.60
2023-02-26T13:11:16.533Z,9.82
2023-02-26T13:16:26.389Z,10.06
2023-02-26T13:21:30.637Z,9.84
2023-02-26T13:26:32.493Z,9.92
2023-02-26T13:31:38.546Z,9.96
2023-02-26T13:36:41.406Z,9.62
2023-02-26T13:41:46.576Z,9.49
2023-02-26T13:46:56.875Z,9.51
2023-02-26T13:51:58.694Z,9.65
2023-02-26T13:57:08.846Z,9.37
2023-02-26T14:02:36.950Z,9.12
2023-02-26T14:07:49.345Z,9.00
2023-02-26T14:13:02.993Z,8.58
2023-02-26T14:18:21.430Z,8.47
2023-02-26T14:23:35.787Z,8.49
2023-02-26T14:28:43.075Z,8.53
2023-02-26T14:33:47.767Z,8.39
2023-02-26T14:38:49.642Z,8.33
2023-02-26T14:43:56.035Z,8.38
2023-02-26T14:48:59.015Z,7.84
2023-02-26T14:54:28.321Z,7.34
2023-02-26T14:59:48.272Z,7.31
2023-02-26T15:05:12.204Z,7.24
2023-02-26T15:10:20.773Z,7.15
2023-02-26T15:15:27.781Z,7.05
2023-02-26T15:20:35.111Z,7.03
2023-02-26T15:25:38.775Z,7.05
2023-02-26T15:30:40.505Z,6.92
2023-02-26T15:35:43.561Z,6.85
2023-02-26T15:40:45.270Z,6.74
2023-02-26T15:45:47.539Z,6.55
2023-02-26T15:50:53.615Z,6.44
2023-02-26T15:55:56.109Z,6.33
2023-02-26T16:01:00.516Z,6.25
2023-02-26T16:06:04.254Z,6.19
2023-02-26T16:11:06.907Z,6.04
2023-02-26T16:16:11.649Z,5.94
2023-02-26T16:21:19.466Z,6.06
2023-02-26T16:26:23.079Z,6.02
2023-02-26T16:31:25.759Z,5.93
2023-02-26T16:36:30.681Z,5.70
2023-02-26T16:41:34.959Z,5.62
2023-02-26T16:46:42.451Z,5.48
2023-02-26T16:51:45.511Z,5.41
2023-02-26T16:56:48.481Z,5.32
2023-02-26T17:01:52.810Z,5.28
2023-02-26T17:06:55.807Z,5.08
2023-02-26T17:12:05.290Z,4.94
2023-02-26T17:17:07.085Z,4.88
2023-02-26T17:22:13.652Z,4.80
2023-02-26T17:27:17.783Z,4.73
2023-02-26T17:32:20.685Z,4.59
2023-02-26T17:37:24.288Z,4.38
2023-02-26T17:42:26.021Z,4.27
2023-02-26T17:47:27.685Z,4.22
2023-02-26T17:52:31.274Z,4.12
2023-02-26T17:57:32.932Z,3.98
2023-02-26T18:02:34.644Z,4.01
2023-02-26T18:07:37.707Z,3.97
2023-02-26T18:12:39.415Z,3.94
2023-02-26T18:17:41.158Z,3.95
2023-02-26T18:22:44.249Z,3.86
2023-02-26T18:27:45.948Z,3.66
2023-02-26T18:32:47.679Z,3.54
2023-02-26T18:37:51.096Z,3.42
2023-02-26T18:42:52.760Z,3.40
2023-02-26T18:47:54.736Z,3.41
2023-02-26T18:52:57.940Z,3.42
2023-02-26T18:57:59.634Z,3.32
2023-02-26T19:03:01.365Z,3.24
2023-02-26T19:08:04.439Z,3.22
2023-02-26T19:13:06.230Z,3.20
2023-02-26T19:18:08.358Z,3.10
2023-02-26T19:23:11.582Z,3.12
2023-02-26T19:28:13.463Z,3.05
2023-02-26T19:33:16.150Z,2.89
2023-02-26T19:38:19.259Z,2.83
2023-02-26T19:43:23.225Z,2.76
2023-02-26T19:48:25.879Z,2.74
2023-02-26T19:53:30.454Z,2.62
2023-02-26T19:58:32.883Z,2.59
2023-02-26T20:03:34.566Z,2.48
2023-02-26T20:08:37.565Z,2.47
2023-02-26T20:13:39.213Z,2.37
2023-02-26T20:18:40.994Z,2.26
2023-02-26T20:23:44.048Z,2.29
2023-02-26T20:28:45.762Z,2.28
2023-02-26T20:33:47.559Z,2.24
2023-02-26T20:38:51.157Z,2.13
2023-02-26T20:43:52.884Z,2.18
2023-02-26T20:48:54.602Z,2.11
2023-02-26T20:53:57.672Z,2.04
2023-02-26T20:58:59.372Z,1.96
2023-02-26T21:04:01.919Z,1.96
2023-02-26T21:09:05.384Z,1.94
2023-02-26T21:14:07.453Z,1.89
2023-02-26T21:19:09.169Z,1.83
2023-02-26T21:24:12.233Z,1.79
2023-02-26T21:29:13.914Z,1.67
2023-02-26T21:34:32.709Z,1.60
2023-02-26T21:39:37.973Z,1.60
2023-02-26T21:44:39.715Z,1.56
2023-02-26T21:49:41.382Z,1.47
2023-02-26T21:54:44.369Z,1.41
2023-02-26T21:59:46.030Z,1.35
2023-02-26T22:04:47.789Z,1.30
2023-02-26T22:09:51.683Z,1.25
2023-02-26T22:14:53.360Z,1.18
2023-02-26T22:19:55.052Z,1.13
2023-02-26T22:24:58.007Z,1.09
2023-02-26T22:29:59.699Z,0.99
2023-02-26T22:35:01.483Z,0.91
2023-02-26T22:40:05.371Z,0.86
2023-02-26T22:45:08.589Z,0.72
2023-02-26T22:50:11.566Z,0.63
2023-02-26T22:55:14.649Z,0.66
2023-02-26T23:00:20.337Z,0.69
2023-02-26T23:05:22.421Z,0.66
2023-02-26T23:10:25.444Z,0.69
2023-02-26T23:15:28.025Z,0.69
2023-02-26T23:20:29.796Z,0.65
2023-02-26T23:25:32.834Z,0.60
2023-02-26T23:30:34.569Z,0.62
2023-02-26T23:35:36.393Z,0.59
2023-02-26T23:40:39.412Z,0.51
2023-02-26T23:45:41.095Z,0.49
2023-02-26T23:50:42.775Z,0.46
2023-02-26T23:55:46.258Z,0.50
